Latest Weather Observations for Orbost

IDV60801

Issued at 10:35 pm EST Tuesday 29 July 2014 (issued every 30 minutes, with the page automatically refreshed every 10 minutes)

About weather observations | Map of weather stations | Latest weather observations for VIC | Other Formats
Station Details ID: 084145 Name: ORBOST Lat: -37.69 Lon: 148.47 Height: 62.65 m
Data from the previous 72 hours. | See also: Recent months at Orbost
Date/Time
EST
Temp
°C
App
Temp
°C
Dew
Point
Rel
Hum
%
Delta-T
°C
Wind Press
QNH
hPa
Press
MSL
hPa
Rain
since 9 am
mm
Dir
 
Spd
km/h
Gust
km/h
Spd
kts
Gust
kts
29/10:30pm 16.9 11.8 5.8 48 5.4 NW 22 41 12 22 1007.9 - 0.0
29/10:00pm 16.4 11.2 5.4 48 5.3 NW 22 35 12 19 1007.9 1007.9 0.0
29/09:30pm 16.9 11.3 5.5 47 5.5 NW 24 43 13 23 1007.9 - 0.0
29/09:00pm 16.8 12.0 5.4 47 5.5 NW 20 33 11 18 1008.6 1008.6 0.0
29/08:30pm 16.5 11.3 5.5 48 5.3 NW 22 37 12 20 1008.2 - 0.0
29/08:00pm 17.0 11.8 5.3 46 5.6 NW 22 48 12 26 1007.4 1007.4 0.0
29/07:30pm 16.4 12.1 5.4 48 5.3 NW 17 28 9 15 1007.7 - 0.0
29/07:00pm 17.0 11.4 5.6 47 5.5 NNW 24 46 13 25 1006.9 1007.0 0.0
29/06:30pm 16.8 11.3 5.7 48 5.4 NW 24 39 13 21 1007.2 - 0.0
29/06:00pm 16.5 12.6 5.5 48 5.3 NW 15 22 8 12 1007.2 1007.3 0.0
29/05:30pm 16.6 11.4 5.6 48 5.3 NW 22 39 12 21 1006.9 - 0.0
29/05:00pm 16.7 12.8 5.3 47 5.5 NW 15 30 8 16 1006.6 1006.7 0.0
29/04:30pm 16.8 12.5 5.1 46 5.6 NW 17 30 9 16 1006.4 - 0.0
29/04:00pm 17.3 11.2 4.9 44 6.0 NW 26 46 14 25 1006.1 1006.2 0.0
29/03:30pm 17.4 11.2 4.4 42 6.2 NW 26 44 14 24 1006.3 - 0.0
29/03:00pm 17.6 10.2 3.9 40 6.5 NW 32 63 17 34 1006.0 1006.1 0.0
29/02:58pm 17.7 10.2 3.6 39 6.6 NW 32 63 17 34 1005.8 - 0.0
29/02:30pm 17.5 12.6 4.1 41 6.3 NW 19 41 10 22 1006.3 - 0.0
29/02:00pm 18.2 9.3 3.3 37 7.0 NNW 39 65 21 35 1005.8 1005.9 0.0
29/01:46pm 18.7 9.9 3.7 37 7.1 NNW 39 57 21 31 1006.2 - 0.0
29/01:30pm 17.8 10.1 3.3 38 6.7 NW 33 50 18 27 1006.5 - 0.0
29/01:00pm 17.6 9.8 3.1 38 6.7 NW 33 54 18 29 1007.4 1007.4 0.0
29/12:40pm 18.7 11.4 2.5 34 7.5 NW 30 50 16 27 1007.2 - 0.0
29/12:30pm 19.0 13.7 3.2 35 7.4 WNW 20 33 11 18 1007.5 - 0.0
29/12:00pm 18.6 12.1 2.9 35 7.3 NW 26 52 14 28 1007.1 1007.2 0.0
29/11:30am 18.0 10.2 1.9 34 7.3 NW 32 54 17 29 1008.1 - 0.0
29/11:18am 18.5 11.4 1.5 32 7.7 NW 28 50 15 27 1008.2 - 0.0
29/11:00am 18.6 12.3 1.6 32 7.7 NW 24 37 13 20 1008.3 1008.3 0.0
29/10:30am 18.2 11.9 1.7 33 7.4 NNW 24 33 13 18 1008.8 - 0.0
29/10:00am 17.6 12.3 1.6 34 7.2 NW 19 30 10 16 1009.9 1009.9 0.0
29/09:30am 17.0 13.1 1.4 35 6.9 NW 11 26 6 14 1009.0 - 0.0
29/09:00am 16.6 13.5 3.7 42 6.0 WNW 9 19 5 10 1009.0 1009.0 0.0
29/08:30am 15.9 12.3 2.7 41 6.0 NW 11 24 6 13 1008.7 - 0.0
29/08:00am 14.9 11.7 3.1 45 5.3 NNW 9 15 5 8 1008.9 1008.9 0.0
29/07:30am 11.9 9.2 2.9 54 3.9 NNW 6 11 3 6 1009.3 - 0.0
29/07:00am 11.8 9.6 3.1 55 3.8 WSW 4 6 2 3 1009.0 1009.0 0.0
29/06:30am 13.2 10.4 3.0 50 4.5 WNW 7 11 4 6 1008.7 - 0.0
29/06:00am 13.3 10.1 3.1 50 4.6 NW 9 15 5 8 1009.0 1009.0 0.0
29/05:30am 8.9 6.7 3.1 67 2.5 NW 4 7 2 4 1009.3 - 0.0
29/05:00am 11.4 8.8 4.2 61 3.2 NNW 7 13 4 7 1009.2 1009.2 0.0
29/04:30am 9.0 5.7 2.6 64 2.7 N 9 15 5 8 1009.5 - 0.0
29/04:00am 10.9 8.3 4.1 63 3.0 N 7 9 4 5 1009.7 1009.7 0.0
29/03:30am 10.9 8.2 3.7 61 3.2 N 7 11 4 6 1009.9 - 0.0
29/03:00am 9.4 6.9 3.8 68 2.5 N 6 7 3 4 1010.1 1010.1 0.0
29/02:30am 10.9 9.2 3.9 62 3.1 N 2 4 1 2 1010.5 - 0.0
29/02:00am 11.0 8.9 4.0 62 3.1 N 4 4 2 2 1010.9 1010.9 0.0
29/01:30am 11.1 9.4 3.9 61 3.2 NNW 2 4 1 2 1011.2 - 0.0
29/01:00am 11.0 8.8 3.5 60 3.3 NNW 4 6 2 3 1011.6 1011.7 0.0
29/12:30am 11.4 9.2 3.4 58 3.5 NNW 4 6 2 3 1011.8 - 0.0
29/12:00am 12.1 9.6 3.6 56 3.8 NNW 6 7 3 4 1012.1 1012.2 0.0
 
Date/Time
EST
Temp
°C
App
Temp
°C
Dew
Point
Rel
Hum
%
Delta-T
°C
Wind Press
QNH
hPa
Press
MSL
hPa
Rain
since 9 am
mm
Dir
 
Spd
km/h
Gust
km/h
Spd
kts
Gust
kts
28/11:30pm 11.9 9.3 3.4 56 3.8 NNW 6 9 3 5 1012.3 - 0.0
28/11:00pm 12.4 10.2 3.4 54 4.0 SW 4 6 2 3 1012.6 1012.7 0.0
28/10:30pm 11.9 9.7 3.2 55 3.8 SSW 4 7 2 4 1012.4 - 0.0
28/10:00pm 14.3 11.8 3.5 48 4.9 NNW 6 15 3 8 1012.0 1012.1 0.0
28/09:30pm 13.8 10.6 3.3 49 4.7 NNW 9 15 5 8 1012.1 - 0.0
28/09:00pm 14.6 10.3 3.4 47 5.1 N 15 24 8 13 1012.2 1012.3 0.0
28/08:30pm 13.9 9.6 3.4 49 4.7 N 15 24 8 13 1012.4 - 0.0
28/08:00pm 13.6 10.5 3.4 50 4.6 N 9 11 5 6 1012.7 1012.8 0.0
28/07:30pm 13.0 10.2 3.1 51 4.4 NNW 7 11 4 6 1013.1 - 0.0
28/07:00pm 14.8 10.2 3.6 47 5.1 N 17 26 9 14 1012.9 1013.0 0.0
28/06:30pm 14.9 10.7 3.7 47 5.1 N 15 19 8 10 1012.9 - 0.0
28/06:00pm 15.2 11.0 4.0 47 5.2 N 15 26 8 14 1012.5 1012.6 0.0
28/05:30pm 15.1 10.9 3.9 47 5.2 N 15 22 8 12 1012.5 - 0.0
28/05:00pm 15.9 11.7 4.0 45 5.5 N 15 20 8 11 1012.6 1012.7 0.0
28/04:30pm 17.4 13.2 4.0 41 6.3 N 15 20 8 11 1012.8 - 0.0
28/04:00pm 18.3 13.8 4.1 39 6.7 NNW 17 24 9 13 1012.7 1012.8 0.0
28/03:30pm 18.8 13.6 3.4 36 7.2 NNW 20 32 11 17 1012.9 - 0.0
28/03:00pm 19.2 15.1 4.6 38 7.0 NW 15 28 8 15 1012.9 1013.0 0.0
28/02:30pm 19.1 13.9 3.3 35 7.4 NNW 20 32 11 17 1013.0 - 0.0
28/02:00pm 19.5 14.7 4.4 37 7.3 NNW 19 33 10 18 1013.2 1013.3 0.0
28/01:30pm 19.4 14.9 4.0 36 7.4 NW 17 28 9 15 1013.6 - 0.0
28/01:00pm 19.2 14.8 4.6 38 7.0 NW 17 30 9 16 1013.9 1014.0 0.0
28/12:30pm 18.6 13.6 4.8 40 6.7 NW 20 32 11 17 1014.5 - 0.0
28/12:00pm 18.0 11.8 4.2 40 6.5 NW 26 41 14 22 1015.0 1015.1 0.0
28/11:30am 17.7 12.3 4.6 42 6.3 NW 22 32 12 17 1015.3 - 0.0
28/11:00am 17.7 14.5 5.3 44 6.0 NW 11 20 6 11 1016.0 1016.1 0.0
28/10:30am 16.9 13.3 4.9 45 5.7 NNW 13 22 7 12 1016.4 - 0.0
28/10:00am 16.0 11.6 4.7 47 5.3 NNW 17 28 9 15 1016.4 1016.5 0.0
28/09:30am 15.1 10.2 4.2 48 5.1 N 19 33 10 18 1016.5 - 0.0
28/09:00am 14.1 9.6 4.1 51 4.6 N 17 30 9 16 1016.6 1016.7 0.0
28/08:30am 13.1 10.1 4.0 54 4.1 NW 9 19 5 10 1016.8 - 0.0
28/08:00am 11.4 8.8 3.4 58 3.5 NW 6 13 3 7 1017.0 1017.1 0.0
28/07:30am 10.6 7.8 2.9 59 3.3 NW 7 17 4 9 1017.1 - 0.0
28/07:00am 10.7 7.5 3.0 59 3.3 NNW 9 17 5 9 1017.2 1017.3 0.0
28/06:30am 10.2 7.0 2.8 60 3.2 NNW 9 13 5 7 1017.3 - 0.0
28/06:00am 8.5 5.3 2.9 68 2.4 N 9 13 5 7 1017.4 1017.5 0.0
28/05:30am 8.9 6.3 3.1 67 2.5 N 6 9 3 5 1017.3 - 0.0
28/05:00am 9.1 6.2 2.7 64 2.7 N 7 9 4 5 1017.5 1017.6 0.0
28/04:30am 8.7 5.8 2.7 66 2.5 N 7 9 4 5 1017.8 - 0.0
28/04:00am 8.4 5.6 3.3 70 2.2 N 7 9 4 5 1018.0 1018.1 0.0
28/03:30am 6.8 4.4 2.3 73 1.9 NNW 4 4 2 2 1018.1 - 0.0
28/03:00am 8.3 6.8 2.8 68 2.3 CALM 0 0 0 0 1018.2 1018.3 0.0
28/02:30am 8.4 6.1 2.8 68 2.4 NNW 4 6 2 3 1018.2 - 0.0
28/02:00am 9.6 7.0 3.4 65 2.7 NNW 6 7 3 4 1018.4 1018.5 0.0
28/01:30am 7.8 6.6 4.7 81 1.4 CALM 0 0 0 0 1018.7 - 0.0
28/01:00am 9.4 7.0 4.2 70 2.3 NNW 6 9 3 5 1019.0 1019.1 0.0
28/12:30am 8.6 5.8 5.0 78 1.6 NNW 9 13 5 7 1019.4 - 0.0
28/12:00am 7.4 5.7 5.9 90 0.7 N 4 9 2 5 1019.7 1019.8 0.0
 
Date/Time
EST
Temp
°C
App
Temp
°C
Dew
Point
Rel
Hum
%
Delta-T
°C
Wind Press
QNH
hPa
Press
MSL
hPa
Rain
since 9 am
mm
Dir
 
Spd
km/h
Gust
km/h
Spd
kts
Gust
kts
27/11:30pm 7.5 5.8 6.1 91 0.6 N 4 6 2 3 1020.0 - 0.0
27/11:00pm 8.0 5.9 5.8 86 1.0 N 6 11 3 6 1020.3 1020.4 0.0
27/10:30pm 8.2 6.3 6.5 89 0.8 N 6 7 3 4 1020.4 - 0.0
27/10:00pm 9.2 8.6 7.5 89 0.8 CALM 0 0 0 0 1020.6 1020.7 0.0
27/09:30pm 10.3 9.3 7.4 82 1.4 NE 2 6 1 3 1020.6 - 0.0
27/09:00pm 10.4 8.6 8.0 85 1.2 NE 7 11 4 6 1020.5 1020.6 0.0
27/08:30pm 10.2 8.6 8.6 90 0.8 NNE 7 11 4 6 1021.0 - 0.0
27/08:00pm 10.1 9.1 8.9 92 0.6 NNE 4 6 2 3 1021.2 1021.3 0.0
27/07:30pm 10.0 8.6 8.8 92 0.6 N 6 7 3 4 1021.2 - 0.0
27/07:00pm 10.2 9.2 9.0 92 0.6 N 4 6 2 3 1021.2 1021.3 0.0
27/06:30pm 10.4 9.8 9.0 91 0.7 N 2 6 1 3 1021.1 - 0.0
27/06:00pm 11.3 11.1 9.0 86 1.1 CALM 0 0 0 0 1020.6 1020.7 0.0
27/05:30pm 11.7 11.6 9.4 86 1.2 CALM 0 0 0 0 1020.1 - 0.0
27/05:00pm 12.4 11.6 9.6 83 1.4 SE 4 6 2 3 1019.7 1019.8 0.0
27/04:30pm 12.9 12.2 9.9 82 1.5 ESE 4 6 2 3 1019.7 - 0.0
27/04:00pm 13.3 12.2 9.9 80 1.7 ESE 6 9 3 5 1019.8 1019.9 0.0
27/03:30pm 14.2 13.1 9.8 75 2.3 SE 6 9 3 5 1020.2 - 0.0
27/03:00pm 14.9 13.6 9.9 72 2.6 SSE 7 11 4 6 1020.2 1020.3 0.0
27/02:30pm 16.5 15.3 8.0 57 4.3 W 4 7 2 4 1020.4 - 0.0
27/02:00pm 16.3 15.2 8.5 60 4.0 WSW 4 7 2 4 1020.7 1020.8 0.0
27/01:30pm 15.8 14.7 8.3 61 3.8 W 4 7 2 4 1021.0 - 0.0
27/01:00pm 16.3 15.3 8.8 61 3.8 NNE 4 7 2 4 1021.6 1021.7 0.0
27/12:30pm 15.2 14.1 8.4 64 3.4 WNW 4 9 2 5 1022.3 - 0.0
27/12:00pm 14.9 13.4 9.1 68 3.0 SW 7 13 4 7 1023.0 1023.1 0.0
27/11:30am 14.8 13.1 8.5 66 3.2 WNW 7 11 4 6 1023.5 - 0.0
27/11:00am 14.0 12.4 8.8 71 2.6 W 7 11 4 6 1023.9 1023.9 0.0
27/10:30am 13.7 12.5 9.7 77 2.1 WNW 6 9 3 5 1024.2 - 0.0
27/10:00am 13.3 11.8 9.0 75 2.2 WNW 7 11 4 6 1024.3 1024.3 0.0
27/09:30am 13.5 12.3 9.6 77 2.0 WNW 6 9 3 5 1024.4 - 0.0
27/09:00am 12.5 10.9 8.8 78 1.8 WNW 7 11 4 6 1024.5 1024.6 0.2
27/08:30am 12.1 10.7 8.8 80 1.6 NW 6 9 3 5 1024.4 - 0.2
27/08:00am 11.6 10.1 8.6 82 1.5 NW 6 9 3 5 1024.4 1024.4 0.2
27/07:30am 11.0 9.4 8.2 83 1.4 NW 6 7 3 4 1024.2 - 0.2
27/07:00am 11.3 9.6 8.3 82 1.5 NW 7 11 4 6 1024.0 1024.0 0.2
27/06:30am 11.3 9.6 8.3 82 1.5 WNW 7 11 4 6 1023.6 - 0.2
27/06:00am 11.1 9.6 8.5 84 1.3 NW 6 9 3 5 1023.4 1023.5 0.2
27/05:30am 10.8 9.7 8.4 85 1.2 NW 4 7 2 4 1023.3 - 0.2
27/05:00am 11.3 10.3 8.7 84 1.3 WNW 4 7 2 4 1023.1 1023.2 0.2
27/04:30am 11.4 9.9 8.6 83 1.4 WNW 6 7 3 4 1023.3 - 0.2
27/04:00am 11.5 10.1 8.7 83 1.4 WNW 6 9 3 5 1023.3 1023.4 0.2
27/03:30am 11.5 9.9 8.9 84 1.3 WNW 7 11 4 6 1023.3 - 0.2
27/03:00am 11.5 9.9 8.9 84 1.3 W 7 11 4 6 1023.2 1023.3 0.2
27/02:30am 11.4 9.8 8.8 84 1.3 W 7 11 4 6 1023.4 - 0.2
27/02:00am 11.3 9.9 8.9 85 1.2 WNW 6 11 3 6 1023.5 1023.6 0.2
27/01:30am 11.5 9.6 8.9 84 1.3 WNW 9 15 5 8 1023.5 - 0.2
27/01:00am 11.4 9.4 8.8 84 1.3 WNW 9 15 5 8 1023.4 1023.5 0.2
27/12:30am 11.3 9.4 8.9 85 1.2 WNW 9 13 5 7 1023.4 - 0.2
27/12:00am 11.1 9.6 9.0 87 1.0 WNW 7 15 4 8 1023.6 1023.7 0.2
 
Date/Time
EST
Temp
°C
App
Temp
°C
Dew
Point
Rel
Hum
%
Delta-T
°C
Wind Press
QNH
hPa
Press
MSL
hPa
Rain
since 9 am
mm
Dir
 
Spd
km/h
Gust
km/h
Spd
kts
Gust
kts
26/11:30pm 11.1 8.9 9.2 88 1.0 WNW 11 20 6 11 1023.9 - 0.2
26/11:00pm 11.3 8.6 9.0 86 1.1 WNW 13 22 7 12 1023.9 1023.9 0.0

Other Formats:

Comma delimited format used in spreadsheet applications
http://www.bom.gov.au/fwo/IDV60801/IDV60801.95918.axf

JavaScript Object Notation format (JSON) in row-major order
http://www.bom.gov.au/fwo/IDV60801/IDV60801.95918.json